Time;durP1;ratioP1;P1;durP2;ratioP2;P2;SDS_P1;SDS_P2;PMS_P1;PMS_P2;Temp;Humidity;BMP_temperature;BMP_pressure;BME280_temperature;BME280_humidity;BME280_pressure;Samples;Min_cycle;Max_cycle;Signal;HPM_P1;HPM_P2
2021/06/23 00:02:08;;;;;;;19.55;6.55;;;23.80;83.10;;;;;;5073925;28;20111;-90
2021/06/23 00:04:33;;;;;;;31.92;6.20;;;23.80;83.10;;;;;;5073754;28;20031;-90
2021/06/23 00:06:59;;;;;;;26.90;6.80;;;23.80;83.30;;;;;;5073824;28;20553;-90
2021/06/23 00:09:25;;;;;;;22.88;6.30;;;23.80;83.10;;;;;;5073507;28;20554;-90
2021/06/23 00:11:52;;;;;;;28.90;6.40;;;23.80;83.20;;;;;;5073855;28;20033;-91
2021/06/23 00:14:19;;;;;;;31.02;6.75;;;23.80;83.20;;;;;;5073607;28;20024;-90
2021/06/23 00:16:45;;;;;;;34.58;7.65;;;23.80;83.40;;;;;;5073326;28;20482;-89
2021/06/23 00:19:12;;;;;;;26.83;7.43;;;23.70;83.40;;;;;;5073510;28;20036;-90
2021/06/23 00:21:38;;;;;;;37.72;7.45;;;23.70;83.40;;;;;;5073339;28;20028;-90
2021/06/23 00:24:04;;;;;;;21.15;6.38;;;23.60;83.20;;;;;;5074509;28;20119;-90
2021/06/23 00:26:35;;;;;;;29.10;7.30;;;23.60;83.30;;;;;;5073569;28;20028;-90
2021/06/23 00:29:03;;;;;;;19.25;6.70;;;23.60;83.30;;;;;;5080239;28;20283;-90
2021/06/23 00:31:28;;;;;;;24.65;8.10;;;23.50;83.30;;;;;;5075492;28;20496;-88
2021/06/23 00:33:57;;;;;;;23.02;5.97;;;23.50;83.40;;;;;;5093676;28;20020;-88
2021/06/23 00:36:23;;;;;;;28.83;7.10;;;23.50;83.30;;;;;;5076700;28;20028;-90
2021/06/23 00:38:48;;;;;;;26.00;7.07;;;23.50;83.20;;;;;;5076400;28;20117;-89
2021/06/23 00:41:18;;;;;;;18.88;5.60;;;23.50;83.10;;;;;;5076882;28;20024;-91
2021/06/23 00:43:45;;;;;;;26.02;5.75;;;23.50;83.10;;;;;;5076578;28;20039;-89
2021/06/23 00:46:11;;;;;;;33.80;6.75;;;23.50;83.20;;;;;;5076127;28;20077;-90
2021/06/23 00:48:37;;;;;;;41.72;6.85;;;23.50;83.60;;;;;;5076317;28;20032;-89
2021/06/23 00:51:03;;;;;;;28.02;7.05;;;23.40;83.60;;;;;;5075777;28;20016;-90
2021/06/23 00:53:30;;;;;;;28.75;5.50;;;23.30;83.70;;;;;;5076179;28;20024;-89
2021/06/23 00:55:57;;;;;;;35.83;6.57;;;23.30;83.80;;;;;;5076141;28;20031;-86
2021/06/23 00:58:24;;;;;;;36.13;6.15;;;23.20;83.50;;;;;;5076454;28;20119;-87
2021/06/23 01:00:52;;;;;;;18.50;4.95;;;23.30;83.30;;;;;;5093958;28;20031;-89
2021/06/23 01:03:19;;;;;;;23.45;5.32;;;23.30;83.10;;;;;;5076064;28;20024;-88
2021/06/23 01:05:45;;;;;;;36.65;7.07;;;23.30;83.20;;;;;;5076094;28;20028;-88
2021/06/23 01:08:11;;;;;;;46.53;7.28;;;23.30;84.20;;;;;;5075789;28;20404;-88
2021/06/23 01:10:37;;;;;;;28.23;6.03;;;23.20;84.50;;;;;;5075699;28;20024;-89
2021/06/23 01:13:23;;;;;;;19.05;6.30;;;23.20;84.20;;;;;;5076226;28;20024;-88
2021/06/23 01:15:49;;;;;;;;;;;23.20;83.40;;;;;;5076056;28;20035;-88
2021/06/23 01:18:16;;;;;;;29.80;5.60;;;23.20;83.60;;;;;;5075511;28;19908;-88
2021/06/23 01:20:43;;;;;;;20.25;5.88;;;23.20;83.20;;;;;;5076082;28;20350;-87
2021/06/23 01:23:10;;;;;;;26.65;6.50;;;23.30;82.90;;;;;;5093628;28;20026;-88
2021/06/23 01:25:36;;;;;;;31.25;7.03;;;23.30;82.50;;;;;;5093564;28;20031;-88
2021/06/23 01:28:01;;;;;;;33.55;5.93;;;23.30;82.40;;;;;;5075538;28;20548;-88
2021/06/23 01:30:27;;;;;;;25.90;5.70;;;23.40;82.50;;;;;;5075561;28;20051;-88
2021/06/23 01:32:53;;;;;;;29.25;6.38;;;23.40;82.50;;;;;;5075720;28;20115;-87
2021/06/23 01:35:20;;;;;;;47.08;7.72;;;23.40;82.30;;;;;;5075462;28;20027;-88
2021/06/23 01:37:45;;;;;;;39.50;6.05;;;23.40;82.10;;;;;;5075398;28;20044;-88
2021/06/23 01:40:12;;;;;;;30.15;6.15;;;23.50;81.50;;;;;;5074300;28;20034;-88
2021/06/23 01:42:37;;;;;;;28.92;6.10;;;23.50;81.50;;;;;;5075167;28;20024;-88
2021/06/23 01:45:04;;;;;;;22.63;5.80;;;23.60;81.40;;;;;;5075308;28;20046;-90
2021/06/23 01:47:30;;;;;;;28.45;5.78;;;23.60;81.30;;;;;;5075207;28;20044;-88
2021/06/23 01:49:56;;;;;;;21.65;5.53;;;23.60;81.10;;;;;;5075280;28;20051;-88
2021/06/23 01:52:22;;;;;;;27.42;6.15;;;23.60;81.10;;;;;;5075435;28;20032;-87
2021/06/23 01:54:50;;;;;;;22.70;5.55;;;23.50;81.40;;;;;;5075312;28;20400;-88
2021/06/23 01:57:15;;;;;;;26.10;5.68;;;23.50;81.80;;;;;;5074953;28;20123;-88
2021/06/23 01:59:42;;;;;;;28.30;5.18;;;23.40;82.00;;;;;;5092779;28;20111;-88
2021/06/23 02:02:19;;;;;;;15.10;5.22;;;23.40;82.50;;;;;;5075007;28;20115;-87
2021/06/23 02:04:53;;;;;;;20.15;4.85;;;23.30;82.80;;;;;;5075183;28;20023;-89
2021/06/23 02:07:40;;;;;;;29.40;6.63;;;23.30;83.20;;;;;;5075223;28;20115;-88
2021/06/23 02:10:34;;;;;;;23.02;5.35;;;23.10;83.70;;;;;;5074851;28;20032;-87
2021/06/23 02:13:18;;;;;;;24.77;6.57;;;23.00;84.20;;;;;;5075002;28;20477;-89
2021/06/23 02:15:46;;;;;;;24.48;6.45;;;23.00;84.40;;;;;;5074825;28;20110;-88
2021/06/23 02:18:12;;;;;;;23.05;6.07;;;22.90;85.00;;;;;;5074664;28;20126;-89
2021/06/23 02:20:38;;;;;;;22.58;6.43;;;22.80;85.50;;;;;;5074746;28;20162;-88
2021/06/23 02:23:08;;;;;;;24.15;5.53;;;22.70;85.80;;;;;;5074972;28;20035;-88
2021/06/23 02:25:34;;;;;;;32.45;6.05;;;22.70;86.00;;;;;;5092466;28;20046;-89
2021/06/23 02:28:00;;;;;;;29.05;6.28;;;22.60;86.50;;;;;;5092668;28;20544;-88
2021/06/23 02:30:26;;;;;;;25.27;6.28;;;22.50;86.80;;;;;;5092439;28;20056;-87
2021/06/23 02:32:55;;;;;;;21.77;5.63;;;22.50;86.60;;;;;;5092714;28;20020;-88
2021/06/23 02:35:24;;;;;;;25.77;6.10;;;22.50;86.60;;;;;;5074740;28;20023;-87
2021/06/23 02:37:51;;;;;;;31.05;6.57;;;22.50;86.50;;;;;;5074845;28;20442;-86
2021/06/23 02:40:18;;;;;;;22.70;5.93;;;22.50;86.60;;;;;;5074791;28;20107;-85
2021/06/23 02:42:44;;;;;;;33.47;6.07;;;22.50;86.60;;;;;;5074949;28;20130;-88
2021/06/23 02:45:12;;;;;;;18.33;4.85;;;22.40;86.60;;;;;;5092727;28;20628;-88
2021/06/23 02:47:37;;;;;;;26.42;6.60;;;22.40;86.70;;;;;;5074500;28;20552;-87
2021/06/23 02:50:04;;;;;;;26.35;5.35;;;22.40;86.70;;;;;;5074902;28;20020;-88
2021/06/23 02:52:33;;;;;;;21.70;6.10;;;22.40;86.60;;;;;;5077647;28;20359;-87
2021/06/23 02:55:00;;;;;;;23.88;5.88;;;22.40;86.50;;;;;;5096370;28;20012;-86
2021/06/23 02:57:26;;;;;;;24.92;5.72;;;22.40;86.60;;;;;;5079053;28;20129;-89
2021/06/23 02:59:53;;;;;;;21.85;6.00;;;22.40;86.50;;;;;;5078148;28;20035;-88
2021/06/23 03:02:18;;;;;;;35.67;7.00;;;22.40;86.50;;;;;;5096466;28;20020;-86
2021/06/23 03:04:46;;;;;;;29.92;6.22;;;22.40;86.30;;;;;;5096494;28;20020;-87
2021/06/23 03:07:12;;;;;;;34.10;6.90;;;22.40;86.20;;;;;;5078411;28;20028;-87
2021/06/23 03:09:39;;;;;;;25.60;6.47;;;22.50;86.10;;;;;;5078538;28;20081;-87
2021/06/23 03:12:06;;;;;;;31.40;6.20;;;22.50;86.30;;;;;;5078223;28;20024;-88
2021/06/23 03:14:32;;;;;;;41.53;7.55;;;22.50;85.80;;;;;;5077584;28;20480;-88
2021/06/23 03:16:58;;;;;;;26.35;6.40;;;22.60;85.40;;;;;;5078368;28;20073;-88
2021/06/23 03:19:25;;;;;;;23.00;6.35;;;22.60;85.20;;;;;;5077804;28;20050;-89
2021/06/23 03:21:50;;;;;;;20.73;5.55;;;22.70;85.20;;;;;;5078266;28;20039;-88
2021/06/23 03:24:16;;;;;;;24.30;5.95;;;22.70;85.00;;;;;;5078441;28;20024;-88
2021/06/23 03:26:42;;;;;;;25.20;6.47;;;22.80;85.00;;;;;;5078125;28;20031;-87
2021/06/23 03:29:22;;;;;;;29.35;7.45;;;22.80;84.70;;;;;;5077912;28;20048;-87
2021/06/23 03:31:48;;;;;;;39.88;6.88;;;22.90;84.60;;;;;;5096198;28;20034;-90
2021/06/23 03:34:14;;;;;;;39.05;7.20;;;22.90;84.40;;;;;;5077770;28;20024;-90
2021/06/23 03:36:39;;;;;;;30.40;6.07;;;22.90;84.30;;;;;;5095838;28;20480;-90
2021/06/23 03:39:05;;;;;;;21.63;6.00;;;23.00;84.30;;;;;;5077680;28;20036;-89
2021/06/23 03:41:30;;;;;;;25.42;6.00;;;23.00;84.30;;;;;;5079464;28;20019;-90
2021/06/23 03:43:56;;;;;;;28.20;6.68;;;23.10;84.50;;;;;;5077279;28;20044;-90
2021/06/23 03:46:22;;;;;;;30.70;6.18;;;23.10;84.60;;;;;;5077563;28;20024;-91
2021/06/23 03:48:47;;;;;;;30.65;6.97;;;23.10;84.60;;;;;;5077722;28;20105;-89
2021/06/23 03:51:13;;;;;;;31.35;6.85;;;23.20;84.50;;;;;;5077614;28;20039;-90
2021/06/23 03:53:39;;;;;;;30.63;8.13;;;23.30;84.30;;;;;;5077183;28;20020;-89
2021/06/23 03:56:04;;;;;;;27.63;6.07;;;23.30;84.20;;;;;;5077485;28;20545;-90
2021/06/23 03:58:30;;;;;;;29.27;5.80;;;23.40;84.30;;;;;;5095439;28;20473;-91
2021/06/23 04:00:56;;;;;;;25.38;5.65;;;23.60;83.90;;;;;;5077706;28;20024;-90
2021/06/23 04:03:21;;;;;;;35.22;6.82;;;23.80;83.30;;;;;;5076195;28;20473;-90
2021/06/23 04:05:47;;;;;;;28.75;5.75;;;24.00;82.60;;;;;;5076011;28;20032;-91
2021/06/23 04:08:12;;;;;;;28.27;6.18;;;24.30;81.40;;;;;;5075865;28;20030;-91
2021/06/23 04:10:38;;;;;;;32.45;6.35;;;24.70;79.20;;;;;;5077698;28;20027;-89
2021/06/23 04:13:04;;;;;;;28.38;5.93;;;25.00;78.10;;;;;;5076949;28;20032;-87
2021/06/23 04:15:29;;;;;;;22.02;5.97;;;25.20;77.50;;;;;;5077609;28;20024;-88
2021/06/23 04:17:55;;;;;;;34.20;7.13;;;25.30;77.50;;;;;;5077158;28;20028;-87
2021/06/23 04:20:21;;;;;;;37.25;6.55;;;25.40;77.20;;;;;;5077000;28;20035;-88
2021/06/23 04:22:46;;;;;;;20.95;5.15;;;25.50;77.00;;;;;;5076986;28;20392;-87
2021/06/23 04:25:13;;;;;;;29.58;6.40;;;25.60;76.60;;;;;;5076950;28;20032;-87
2021/06/23 04:27:39;;;;;;;19.85;5.97;;;25.80;76.30;;;;;;5076636;28;20016;-88
2021/06/23 04:30:08;;;;;;;36.42;7.03;;;26.00;76.10;;;;;;5076566;28;20051;-88
2021/06/23 04:32:33;;;;;;;23.35;5.30;;;26.10;76.30;;;;;;5094762;28;20113;-88
2021/06/23 04:35:01;;;;;;;25.60;5.50;;;26.30;76.10;;;;;;5076870;28;20023;-83
2021/06/23 04:37:27;;;;;;;29.63;6.55;;;26.40;75.70;;;;;;5076564;28;20024;-87
2021/06/23 04:39:53;;;;;;;30.50;6.00;;;26.50;75.60;;;;;;5076411;28;20500;-87
2021/06/23 04:42:18;;;;;;;29.58;6.50;;;26.70;75.50;;;;;;5076398;28;20034;-88
2021/06/23 04:44:44;;;;;;;35.72;6.82;;;26.80;75.60;;;;;;5094365;28;20480;-88
2021/06/23 04:47:10;;;;;;;34.60;6.70;;;26.90;75.30;;;;;;5076436;28;20078;-88
2021/06/23 04:49:35;;;;;;;25.13;5.75;;;27.00;75.20;;;;;;5076190;28;20039;-87
2021/06/23 04:52:01;;;;;;;26.20;6.13;;;27.10;75.10;;;;;;5076430;28;20481;-87
2021/06/23 04:54:27;;;;;;;20.42;4.80;;;27.20;74.50;;;;;;5094667;28;20028;-88
2021/06/23 04:56:52;;;;;;;20.35;5.60;;;27.40;74.20;;;;;;5076182;28;20388;-88
2021/06/23 04:59:18;;;;;;;20.77;6.57;;;27.50;73.60;;;;;;5093836;28;20040;-87
2021/06/23 05:01:44;;;;;;;31.95;6.45;;;27.60;73.30;;;;;;5075764;28;20028;-85
2021/06/23 05:04:09;;;;;;;46.20;7.32;;;27.70;73.20;;;;;;5075869;28;20020;-88
2021/06/23 05:06:35;;;;;;;19.40;5.53;;;27.60;73.60;;;;;;5076134;28;20024;-88
2021/06/23 05:09:01;;;;;;;27.35;6.53;;;27.80;73.10;;;;;;5093810;28;20024;-88
2021/06/23 05:11:27;;;;;;;19.13;5.15;;;27.90;72.90;;;;;;5076163;28;20373;-88
2021/06/23 05:13:55;;;;;;;32.72;6.30;;;28.00;72.80;;;;;;5075983;28;20024;-88
2021/06/23 05:16:21;;;;;;;28.92;6.18;;;28.10;71.90;;;;;;5093880;28;20020;-89
2021/06/23 05:18:50;;;;;;;25.30;5.97;;;28.30;71.40;;;;;;5093408;28;20093;-88
2021/06/23 05:21:16;;;;;;;34.83;6.13;;;28.50;71.40;;;;;;5093543;28;20020;-87
2021/06/23 05:23:42;;;;;;;26.55;5.80;;;28.70;71.30;;;;;;5093250;28;20034;-87
2021/06/23 05:26:07;;;;;;;42.58;6.45;;;28.80;71.40;;;;;;5093634;28;20021;-90
2021/06/23 05:28:33;;;;;;;37.95;7.00;;;28.90;70.70;;;;;;5075276;28;20043;-90
2021/06/23 05:30:59;;;;;;;33.40;7.60;;;29.00;70.60;;;;;;5093295;28;20074;-89
2021/06/23 05:33:24;;;;;;;31.67;6.78;;;29.20;69.00;;;;;;5075154;28;20208;-90
2021/06/23 05:35:50;;;;;;;30.65;6.30;;;29.30;68.80;;;;;;5075680;28;20028;-90
2021/06/23 05:38:15;;;;;;;28.10;5.85;;;29.50;69.20;;;;;;5074939;28;20548;-89
2021/06/23 05:40:41;;;;;;;33.78;6.35;;;29.60;68.10;;;;;;5075137;28;20084;-89
2021/06/23 05:43:07;;;;;;;30.90;7.15;;;29.80;67.20;;;;;;5075285;28;20488;-88
2021/06/23 05:45:33;;;;;;;35.20;7.68;;;30.00;66.10;;;;;;5075346;28;20051;-89
2021/06/23 05:47:58;;;;;;;27.35;5.43;;;30.50;65.00;;;;;;5075340;28;20020;-88
2021/06/23 05:50:24;;;;;;;31.27;5.15;;;31.40;61.90;;;;;;5074972;28;20024;-89
2021/06/23 05:52:49;;;;;;;28.20;6.40;;;31.70;61.60;;;;;;5075204;28;20027;-88
2021/06/23 05:55:21;;;;;;;40.72;6.95;;;32.10;60.60;;;;;;5075003;28;20024;-89
2021/06/23 05:57:52;;;;;;;43.20;6.72;;;32.90;57.80;;;;;;5075451;28;20070;-87
2021/06/23 06:00:20;;;;;;;29.70;6.63;;;34.30;53.70;;;;;;5075081;28;20124;-89
2021/06/23 06:02:47;;;;;;;35.70;5.68;;;35.40;51.00;;;;;;5075221;28;20511;-89
2021/06/23 06:05:13;;;;;;;38.38;6.80;;;36.50;47.60;;;;;;5074877;28;20115;-88
2021/06/23 06:07:39;;;;;;;34.30;6.30;;;37.40;45.10;;;;;;5074994;28;20678;-91
2021/06/23 06:10:05;;;;;;;28.35;5.88;;;38.30;42.20;;;;;;5074789;28;20035;-88
2021/06/23 06:12:30;;;;;;;26.77;6.28;;;39.00;40.00;;;;;;5074946;28;20028;-89
2021/06/23 06:14:56;;;;;;;29.08;6.28;;;39.40;39.60;;;;;;5074637;28;20050;-90
2021/06/23 06:17:21;;;;;;;40.25;6.72;;;40.10;38.20;;;;;;5074652;28;20024;-89
2021/06/23 06:19:47;;;;;;;26.58;7.07;;;40.70;37.40;;;;;;5074595;28;20091;-89
2021/06/23 06:22:13;;;;;;;22.00;6.13;;;41.30;36.30;;;;;;5074656;28;20016;-89
2021/06/23 06:24:38;;;;;;;28.35;6.65;;;40.90;36.30;;;;;;5074597;28;20396;-88
2021/06/23 06:27:04;;;;;;;39.75;6.90;;;41.00;35.80;;;;;;5074323;28;20563;-90
2021/06/23 06:29:31;;;;;;;27.00;6.82;;;40.90;36.50;;;;;;5073665;28;20100;-91
2021/06/23 06:31:57;;;;;;;32.58;6.65;;;41.00;35.10;;;;;;5092438;28;20028;-89
2021/06/23 06:34:22;;;;;;;28.27;6.78;;;41.10;35.10;;;;;;5074613;28;20400;-91
2021/06/23 06:36:48;;;;;;;38.35;5.85;;;41.10;35.30;;;;;;5092611;28;20024;-90
2021/06/23 06:39:14;;;;;;;31.10;6.53;;;41.20;35.10;;;;;;5074688;28;20040;-90
2021/06/23 06:41:40;;;;;;;27.63;6.15;;;41.20;35.40;;;;;;5074686;28;20136;-90
2021/06/23 06:44:05;;;;;;;37.70;7.50;;;41.30;34.60;;;;;;5092691;28;20040;-91
2021/06/23 06:46:31;;;;;;;25.95;7.43;;;41.60;34.00;;;;;;5092379;28;20039;-90
2021/06/23 06:48:57;;;;;;;35.33;7.38;;;41.60;34.20;;;;;;5074501;28;20105;-91
2021/06/23 06:51:23;;;;;;;30.38;6.38;;;42.00;34.10;;;;;;5092307;28;20027;-90
2021/06/23 06:53:48;;;;;;;25.98;6.40;;;42.50;33.40;;;;;;5074223;28;20027;-90
2021/06/23 06:56:14;;;;;;;30.50;6.63;;;42.50;32.70;;;;;;5073939;28;20036;-90
2021/06/23 06:58:40;;;;;;;30.33;7.00;;;42.20;32.60;;;;;;5074198;28;20020;-91
2021/06/23 07:01:05;;;;;;;33.90;7.25;;;42.40;32.50;;;;;;5074387;28;20020;-90
2021/06/23 07:03:31;;;;;;;32.60;7.05;;;42.50;31.80;;;;;;5074091;28;20495;-91
2021/06/23 07:05:57;;;;;;;28.85;6.35;;;42.70;31.80;;;;;;5074280;28;20115;-89
2021/06/23 07:08:23;;;;;;;35.60;6.60;;;42.30;33.20;;;;;;5074303;28;20032;-90
2021/06/23 07:10:48;;;;;;;30.95;6.07;;;42.60;32.90;;;;;;5074147;28;20040;-91
2021/06/23 07:13:14;;;;;;;26.20;6.45;;;42.60;33.20;;;;;;5073901;28;20492;-90
2021/06/23 07:15:40;;;;;;;27.98;6.30;;;42.70;33.00;;;;;;5074320;28;20032;-91
2021/06/23 07:18:05;;;;;;;33.97;5.53;;;42.70;32.10;;;;;;5074367;28;20184;-90
2021/06/23 07:20:31;;;;;;;33.53;7.15;;;42.70;32.10;;;;;;5074283;28;20550;-90
2021/06/23 07:22:56;;;;;;;31.65;6.78;;;42.90;32.00;;;;;;5074233;28;20024;-91
2021/06/23 07:25:22;;;;;;;21.67;6.68;;;42.70;32.50;;;;;;5074089;28;20113;-91
2021/06/23 07:27:48;;;;;;;28.38;6.65;;;42.90;32.30;;;;;;5074327;28;20158;-90
2021/06/23 07:30:14;;;;;;;32.67;6.22;;;42.40;32.10;;;;;;5073971;28;20076;-89
2021/06/23 07:37:57;;;;;;;36.17;6.95;;;42.30;33.30;;;;;;5093332;28;20039;-90
2021/06/23 07:40:41;;;;;;;29.15;5.85;;;41.90;33.30;;;;;;5077715;28;20039;-90
2021/06/23 07:43:07;;;;;;;30.30;5.43;;;41.60;34.10;;;;;;5076188;28;20527;-90
2021/06/23 07:45:32;;;;;;;24.13;6.05;;;41.30;34.30;;;;;;5076438;28;20017;-90
2021/06/23 07:47:58;;;;;;;42.58;6.80;;;40.90;34.80;;;;;;5077263;28;20497;-89
2021/06/23 07:50:24;;;;;;;28.38;6.28;;;40.90;35.00;;;;;;5077311;28;20443;-89
2021/06/23 07:52:56;;;;;;;25.17;5.68;;;40.50;36.00;;;;;;5077095;28;20136;-90
2021/06/23 07:55:43;;;;;;;27.33;6.60;;;40.90;35.70;;;;;;5077349;28;20032;-90
2021/06/23 08:09:12;;;;;;;39.38;6.25;;;40.30;36.50;;;;;;5095044;28;20066;-89
2021/06/23 08:11:40;;;;;;;32.50;6.35;;;40.20;36.50;;;;;;5077174;28;20123;-88
2021/06/23 08:14:06;;;;;;;23.02;5.90;;;40.00;37.10;;;;;;5077042;28;20031;-89
2021/06/23 08:16:36;;;;;;;29.90;5.70;;;40.10;36.60;;;;;;5076921;28;20020;-86
2021/06/23 08:19:02;;;;;;;30.63;5.68;;;40.10;36.30;;;;;;5076940;28;20064;-89
2021/06/23 08:21:28;;;;;;;24.35;5.72;;;39.80;36.80;;;;;;5094822;28;20024;-89
2021/06/23 08:23:54;;;;;;;27.70;6.55;;;39.90;37.40;;;;;;5076940;28;20032;-87
2021/06/23 08:26:19;;;;;;;25.35;5.95;;;40.30;36.10;;;;;;5076263;28;20022;-89
2021/06/23 08:28:46;;;;;;;31.98;7.32;;;40.40;35.70;;;;;;5076338;28;20056;-88
2021/06/23 08:31:12;;;;;;;29.75;5.68;;;40.30;36.20;;;;;;5076701;28;20126;-89
2021/06/23 08:33:38;;;;;;;36.25;6.13;;;40.20;35.10;;;;;;5076547;28;20028;-89
2021/06/23 08:36:04;;;;;;;28.88;6.25;;;40.10;34.80;;;;;;5076421;28;20039;-88
2021/06/23 08:38:30;;;;;;;34.40;6.20;;;40.00;35.60;;;;;;5076640;28;20020;-89
2021/06/23 08:40:55;;;;;;;21.23;6.55;;;40.40;35.40;;;;;;5076754;28;20097;-90
2021/06/23 08:43:21;;;;;;;27.40;5.97;;;40.90;34.50;;;;;;5076152;28;20028;-88
2021/06/23 08:45:48;;;;;;;33.35;6.43;;;40.60;35.60;;;;;;5076130;28;20035;-89
2021/06/23 08:48:15;;;;;;;26.48;5.63;;;41.10;34.60;;;;;;5076080;28;20111;-90
2021/06/23 08:50:41;;;;;;;30.60;6.05;;;41.00;34.80;;;;;;5075850;28;20044;-89
2021/06/23 08:53:08;;;;;;;35.55;6.22;;;40.50;33.60;;;;;;5075838;28;20110;-89
2021/06/23 08:55:34;;;;;;;33.80;6.80;;;39.90;34.80;;;;;;5076195;28;20028;-89
2021/06/23 08:58:00;;;;;;;23.45;6.28;;;40.00;35.90;;;;;;5093925;28;20081;-89
2021/06/23 09:00:26;;;;;;;25.88;5.95;;;40.60;35.00;;;;;;5075853;28;20035;-90
2021/06/23 09:03:00;;;;;;;25.10;5.78;;;41.00;34.40;;;;;;5076294;28;20080;-88
2021/06/23 09:05:25;;;;;;;34.50;6.43;;;41.50;33.60;;;;;;5093860;28;20235;-89
2021/06/23 09:07:57;;;;;;;27.45;6.72;;;41.40;33.90;;;;;;5075929;28;20583;-90
2021/06/23 09:10:23;;;;;;;31.65;7.90;;;41.60;33.50;;;;;;5075591;28;20170;-89
2021/06/23 09:13:04;;;;;;;35.90;6.25;;;41.70;32.30;;;;;;5075617;28;20122;-89
2021/06/23 09:15:47;;;;;;;32.10;6.85;;;42.00;33.00;;;;;;5075399;28;20024;-89
2021/06/23 09:18:16;;;;;;;20.63;6.13;;;42.20;31.90;;;;;;5075569;28;20047;-89
2021/06/23 09:20:43;;;;;;;25.13;6.75;;;42.70;32.20;;;;;;5075425;28;20035;-89
2021/06/23 09:23:09;;;;;;;37.63;5.93;;;43.30;30.50;;;;;;5075442;28;20103;-90
2021/06/23 09:25:37;;;;;;;32.20;6.22;;;42.80;29.60;;;;;;5075574;28;20135;-86
2021/06/23 09:28:05;;;;;;;30.80;6.15;;;42.60;30.50;;;;;;5075357;28;20035;-89
2021/06/23 09:30:39;;;;;;;33.40;6.75;;;42.80;30.10;;;;;;5074836;28;20051;-89
2021/06/23 09:33:12;;;;;;;43.75;7.03;;;43.10;29.30;;;;;;5075214;28;20024;-89
2021/06/23 09:35:46;;;;;;;23.08;5.50;;;43.10;28.90;;;;;;5075382;28;20047;-89
2021/06/23 09:38:50;;;;;;;26.88;5.43;;;42.70;29.10;;;;;;5075464;28;20036;-89
2021/06/23 09:41:36;;;;;;;27.13;5.38;;;41.80;29.30;;;;;;5075308;28;20575;-88
2021/06/23 09:44:04;;;;;;;29.50;6.85;;;41.40;31.30;;;;;;5075248;28;20024;-87
2021/06/23 09:46:35;;;;;;;35.00;5.95;;;41.30;32.20;;;;;;5074922;28;20024;-88
2021/06/23 09:49:21;;;;;;;34.25;6.78;;;41.30;32.50;;;;;;5074968;28;20058;-89
2021/06/23 09:51:59;;;;;;;29.02;4.80;;;41.20;31.90;;;;;;5075681;28;20110;-87
2021/06/23 09:54:30;;;;;;;36.78;5.93;;;41.20;32.20;;;;;;5092965;28;20095;-88
2021/06/23 09:57:17;;;;;;;25.55;5.85;;;41.40;32.00;;;;;;5074780;28;20043;-88
2021/06/23 09:59:49;;;;;;;29.98;5.50;;;42.10;32.00;;;;;;5074847;28;20024;-87
2021/06/23 10:02:34;;;;;;;23.02;6.32;;;42.40;32.60;;;;;;5074237;28;20035;-87
2021/06/23 10:05:21;;;;;;;22.65;6.20;;;42.60;32.40;;;;;;5092573;28;20465;-88
2021/06/23 10:07:49;;;;;;;35.22;5.57;;;42.60;32.40;;;;;;5074286;28;20036;-88
2021/06/23 10:10:21;;;;;;;28.73;5.43;;;42.10;32.10;;;;;;5074797;28;20032;-88
2021/06/23 10:12:54;;;;;;;29.67;6.13;;;41.70;32.20;;;;;;5074586;28;20078;-87
2021/06/23 10:15:21;;;;;;;28.58;5.55;;;41.00;32.40;;;;;;5092548;28;20032;-88
2021/06/23 10:17:48;;;;;;;18.48;4.60;;;40.30;32.80;;;;;;5074593;28;20023;-87
2021/06/23 10:20:15;;;;;;;30.92;6.05;;;39.70;34.60;;;;;;5074272;28;20028;-87
2021/06/23 10:22:43;;;;;;;31.67;6.05;;;39.30;35.20;;;;;;5074366;28;20481;-88
2021/06/23 10:25:12;;;;;;;25.40;5.32;;;39.30;34.30;;;;;;5074354;28;20024;-87
2021/06/23 10:27:44;;;;;;;29.60;6.60;;;39.40;34.30;;;;;;5074271;28;20052;-88
2021/06/23 10:30:13;;;;;;;33.22;6.10;;;39.30;32.90;;;;;;5054593;28;20057;-88
2021/06/23 10:32:40;;;;;;;26.95;5.00;;;38.70;34.30;;;;;;5054453;28;20029;-87
2021/06/23 10:35:07;;;;;;;40.10;7.57;;;38.30;34.80;;;;;;5054420;28;20485;-88
2021/06/23 10:37:36;;;;;;;22.55;4.88;;;38.10;34.60;;;;;;5054097;28;20029;-84
2021/06/23 10:40:06;;;;;;;16.75;4.68;;;37.40;35.40;;;;;;5072039;28;20059;-87
2021/06/23 10:42:32;;;;;;;28.33;5.25;;;36.80;36.70;;;;;;5054012;28;20027;-87
2021/06/23 10:44:58;;;;;;;23.13;5.40;;;36.80;37.80;;;;;;5071645;28;20025;-86
2021/06/23 10:47:31;;;;;;;15.73;4.30;;;36.60;37.30;;;;;;5054265;28;20035;-88
2021/06/23 10:49:57;;;;;;;31.83;5.32;;;36.40;38.80;;;;;;5053952;28;20189;-86
2021/06/23 10:52:23;;;;;;;28.08;6.28;;;36.10;38.90;;;;;;5054205;28;20095;-88
2021/06/23 10:54:54;;;;;;;23.80;4.95;;;35.90;38.90;;;;;;5071918;28;20048;-88
2021/06/23 10:57:43;;;;;;;21.17;4.55;;;35.80;40.00;;;;;;5071991;28;20016;-87
2021/06/23 11:00:18;;;;;;;40.45;6.03;;;35.90;39.20;;;;;;5054037;28;20476;-89
2021/06/23 11:02:49;;;;;;;25.13;4.82;;;36.00;39.70;;;;;;5053939;28;20032;-88
2021/06/23 11:05:22;;;;;;;29.88;4.80;;;36.30;38.50;;;;;;5071914;28;20039;-88
2021/06/23 11:07:49;;;;;;;28.88;5.90;;;36.70;39.20;;;;;;5053652;28;20146;-87
2021/06/23 11:10:15;;;;;;;19.52;5.30;;;36.80;38.30;;;;;;5053869;28;20388;-87
2021/06/23 11:12:51;;;;;;;28.15;4.95;;;36.70;37.80;;;;;;5056003;28;20031;-87
2021/06/23 11:15:22;;;;;;;23.75;5.80;;;36.50;37.70;;;;;;5075993;28;20024;-87
2021/06/23 11:17:50;;;;;;;21.02;5.13;;;36.60;37.90;;;;;;5075606;28;20029;-87
2021/06/23 11:20:21;;;;;;;20.90;5.90;;;36.30;37.40;;;;;;5074349;28;20032;-88
2021/06/23 11:22:54;;;;;;;25.77;5.80;;;36.20;37.70;;;;;;5056462;28;20028;-87
2021/06/23 11:25:25;;;;;;;28.70;4.43;;;36.00;38.40;;;;;;5057741;28;20025;-87
2021/06/23 11:28:10;;;;;;;22.20;5.15;;;36.10;38.30;;;;;;5057589;28;20032;-88
2021/06/23 11:30:50;;;;;;;34.03;5.70;;;36.00;37.80;;;;;;5057794;28;20040;-87
2021/06/23 11:33:28;;;;;;;29.00;5.22;;;35.70;37.40;;;;;;5057041;28;20064;-87
2021/06/23 11:35:57;;;;;;;21.55;4.82;;;35.50;39.40;;;;;;5057401;28;20020;-87
2021/06/23 11:38:23;;;;;;;20.55;4.63;;;35.30;39.30;;;;;;5057600;28;20054;-88
2021/06/23 11:40:50;;;;;;;19.33;5.88;;;35.20;40.60;;;;;;5075245;28;20032;-88
2021/06/23 11:43:16;;;;;;;30.05;5.22;;;35.20;39.10;;;;;;5057200;28;20115;-87
2021/06/23 11:45:43;;;;;;;26.60;6.15;;;35.10;39.60;;;;;;5057443;28;20016;-87
2021/06/23 11:48:09;;;;;;;33.28;4.57;;;35.20;39.10;;;;;;5057424;28;20059;-88
2021/06/23 11:50:35;;;;;;;24.27;4.95;;;35.20;39.50;;;;;;5056917;28;20509;-87
2021/06/23 11:53:06;;;;;;;30.25;4.63;;;35.10;38.40;;;;;;5057608;28;20380;-87
2021/06/23 11:55:31;;;;;;;23.17;5.28;;;35.00;39.00;;;;;;5057052;28;20119;-87
2021/06/23 11:57:58;;;;;;;30.23;4.72;;;34.70;39.20;;;;;;5075059;28;20060;-87
2021/06/23 12:00:25;;;;;;;23.92;5.22;;;34.70;41.20;;;;;;5074680;28;20037;-88
2021/06/23 12:02:51;;;;;;;24.58;5.03;;;34.60;41.50;;;;;;5057181;28;20021;-87
2021/06/23 12:05:18;;;;;;;30.35;5.22;;;34.50;41.40;;;;;;5056821;28;20029;-87
2021/06/23 12:07:44;;;;;;;21.52;4.50;;;34.40;41.30;;;;;;5056839;28;20021;-87
2021/06/23 12:10:10;;;;;;;18.35;4.57;;;34.40;41.40;;;;;;5074645;28;20037;-88
2021/06/23 12:12:36;;;;;;;24.77;5.20;;;34.50;40.80;;;;;;5056887;28;20025;-87
2021/06/23 12:15:05;;;;;;;26.55;4.85;;;34.40;39.90;;;;;;5056600;28;20028;-85
2021/06/23 12:17:30;;;;;;;20.73;4.35;;;34.60;41.90;;;;;;5056638;28;20043;-86
2021/06/23 12:19:56;;;;;;;33.00;5.80;;;34.60;39.70;;;;;;5056796;28;20489;-88
2021/06/23 12:22:25;;;;;;;20.15;5.63;;;34.40;39.70;;;;;;5056949;28;20052;-87
2021/06/23 12:24:51;;;;;;;34.47;4.35;;;34.40;39.70;;;;;;5055964;28;20056;-86
2021/06/23 12:27:17;;;;;;;21.00;3.90;;;34.60;40.30;;;;;;5074529;28;20543;-87
2021/06/23 12:29:42;;;;;;;17.95;4.63;;;34.90;39.80;;;;;;5056091;28;20048;-86
2021/06/23 12:32:08;;;;;;;27.33;4.43;;;35.20;39.20;;;;;;5074349;28;20021;-87
2021/06/23 12:34:34;;;;;;;18.30;4.10;;;35.50;38.20;;;;;;5056466;28;20035;-87
2021/06/23 12:36:59;;;;;;;17.13;4.70;;;35.60;38.10;;;;;;5056076;28;20437;-85
2021/06/23 12:39:25;;;;;;;36.58;5.65;;;35.80;38.60;;;;;;5056604;28;20115;-87
2021/06/23 12:41:52;;;;;;;18.42;4.28;;;36.10;38.80;;;;;;5056277;28;20078;-88
2021/06/23 12:44:18;;;;;;;23.63;4.43;;;36.40;38.10;;;;;;5074059;28;20074;-87
2021/06/23 12:46:43;;;;;;;20.48;4.85;;;36.60;37.30;;;;;;5074128;28;20051;-87
2021/06/23 12:49:09;;;;;;;25.20;5.05;;;36.70;36.70;;;;;;5055743;28;20068;-87
2021/06/23 12:51:35;;;;;;;31.27;4.75;;;36.90;35.60;;;;;;5055888;28;20059;-87
2021/06/23 12:54:01;;;;;;;22.13;4.57;;;37.00;33.80;;;;;;5056028;28;20021;-87
2021/06/23 12:56:26;;;;;;;18.00;4.35;;;36.80;34.80;;;;;;5055762;28;20146;-88
2021/06/23 12:58:52;;;;;;;28.27;4.65;;;36.70;35.40;;;;;;5055925;28;20036;-87